createdAt,value
2023-01-22T00:01:47.585Z,-1.74
2023-01-22T00:04:16.971Z,-1.77
2023-01-22T00:06:46.171Z,-1.74
2023-01-22T00:09:16.081Z,-1.79
2023-01-22T00:11:44.667Z,-1.77
2023-01-22T00:14:12.947Z,-1.78
2023-01-22T00:16:45.825Z,-1.70
2023-01-22T00:19:14.205Z,-1.72
2023-01-22T00:21:42.901Z,-1.71
2023-01-22T00:24:12.839Z,-1.62
2023-01-22T00:26:41.633Z,-1.67
2023-01-22T00:29:11.361Z,-1.77
2023-01-22T00:31:40.682Z,-1.82
2023-01-22T00:34:12.100Z,-1.74
2023-01-22T00:36:43.655Z,-1.78
2023-01-22T00:39:13.705Z,-1.73
2023-01-22T00:41:42.789Z,-1.64
2023-01-22T00:44:11.280Z,-1.74
2023-01-22T00:46:40.004Z,-1.70
2023-01-22T00:49:08.664Z,-1.64
2023-01-22T00:51:39.850Z,-1.53
2023-01-22T00:54:10.622Z,-1.70
2023-01-22T00:56:38.846Z,-1.58
2023-01-22T00:59:11.744Z,-1.73
2023-01-22T01:01:42.889Z,-1.73
2023-01-22T01:04:14.910Z,-1.70
2023-01-22T01:06:45.043Z,-1.64
2023-01-22T01:09:14.021Z,-1.54
2023-01-22T01:11:43.021Z,-1.78
2023-01-22T01:14:11.410Z,-1.72
2023-01-22T01:16:40.131Z,-1.71
2023-01-22T01:19:11.049Z,-1.60
2023-01-22T01:21:40.205Z,-1.72
2023-01-22T01:24:11.533Z,-1.71
2023-01-22T01:26:41.301Z,-1.70
2023-01-22T01:29:10.233Z,-1.57
2023-01-22T01:31:39.781Z,-1.63
2023-01-22T01:34:08.323Z,-1.79
2023-01-22T01:36:48.430Z,-1.69
2023-01-22T01:39:21.380Z,-1.73
2023-01-22T01:41:50.777Z,-1.75
2023-01-22T01:44:21.080Z,-1.78
2023-01-22T01:46:56.172Z,-1.69
2023-01-22T01:49:29.958Z,-1.70
2023-01-22T01:52:00.576Z,-1.71
2023-01-22T01:54:32.636Z,-1.71
2023-01-22T01:57:05.461Z,-1.72
2023-01-22T01:59:35.354Z,-1.64
2023-01-22T02:02:04.295Z,-1.66
2023-01-22T02:04:33.926Z,-1.68
2023-01-22T02:07:02.432Z,-1.67
2023-01-22T02:09:33.053Z,-1.77
2023-01-22T02:12:02.461Z,-1.61
2023-01-22T02:14:34.738Z,-1.56
2023-01-22T02:17:09.043Z,-1.72
2023-01-22T02:19:38.864Z,-1.71
2023-01-22T02:22:14.097Z,-1.83
2023-01-22T02:24:42.393Z,-1.77
2023-01-22T02:27:11.314Z,-1.78
2023-01-22T02:29:41.821Z,-1.60
2023-01-22T02:32:10.822Z,-1.57
2023-01-22T02:34:39.623Z,-1.64
2023-01-22T02:37:08.336Z,-1.55
2023-01-22T02:39:38.933Z,-1.63
2023-01-22T02:42:08.041Z,-1.56
2023-01-22T02:44:36.165Z,-1.53
2023-01-22T02:47:04.902Z,-1.48
2023-01-22T02:49:33.580Z,-1.56
2023-01-22T02:52:01.848Z,-1.66
2023-01-22T02:54:30.259Z,-1.61
2023-01-22T02:57:01.918Z,-1.65
2023-01-22T02:59:30.818Z,-1.71
2023-01-22T03:01:59.180Z,-1.58
2023-01-22T03:04:29.047Z,-1.60
2023-01-22T03:06:57.873Z,-1.58
2023-01-22T03:09:27.716Z,-1.49
2023-01-22T03:11:56.193Z,-1.43
2023-01-22T03:14:43.161Z,-1.45
2023-01-22T03:17:28.964Z,-1.58
2023-01-22T03:20:16.119Z,-1.45
2023-01-22T03:22:44.977Z,-1.43
2023-01-22T03:25:13.672Z,-1.36
2023-01-22T03:28:02.439Z,-1.44
2023-01-22T03:30:32.518Z,-1.53
2023-01-22T03:33:00.808Z,-1.63
2023-01-22T03:35:29.684Z,-1.57
2023-01-22T03:38:00.190Z,-1.59
2023-01-22T03:40:30.146Z,-1.68
2023-01-22T03:42:59.993Z,-1.61
2023-01-22T03:45:29.035Z,-1.52
2023-01-22T03:47:59.126Z,-1.49
2023-01-22T03:50:27.758Z,-1.54
2023-01-22T03:52:58.670Z,-1.68
2023-01-22T03:55:27.089Z,-1.54
2023-01-22T03:57:58.202Z,-1.61
2023-01-22T04:00:26.719Z,-1.55
2023-01-22T04:02:57.051Z,-1.46
2023-01-22T04:05:27.652Z,-1.50
2023-01-22T04:07:56.225Z,-1.63
2023-01-22T04:10:24.755Z,-1.62
2023-01-22T04:12:53.424Z,-1.54
2023-01-22T04:15:21.749Z,-1.49
2023-01-22T04:17:51.693Z,-1.57
2023-01-22T04:20:21.926Z,-1.57
2023-01-22T04:22:51.840Z,-1.69
2023-01-22T04:25:21.476Z,-1.62
2023-01-22T04:27:50.565Z,-1.78
2023-01-22T04:30:20.292Z,-1.65
2023-01-22T04:32:49.571Z,-1.66
2023-01-22T04:35:17.831Z,-1.63
2023-01-22T04:37:46.342Z,-1.65
2023-01-22T04:40:17.165Z,-1.60
2023-01-22T04:42:45.604Z,-1.70
2023-01-22T04:45:14.669Z,-1.69
2023-01-22T04:47:44.048Z,-1.66
2023-01-22T04:50:18.434Z,-1.60
2023-01-22T04:52:48.353Z,-1.61
2023-01-22T04:55:18.583Z,-1.77
2023-01-22T04:57:47.272Z,-1.76
2023-01-22T05:00:17.178Z,-1.70
2023-01-22T05:02:45.946Z,-1.67
2023-01-22T05:05:13.897Z,-1.60
2023-01-22T05:07:41.989Z,-1.66
2023-01-22T05:10:11.295Z,-1.62
2023-01-22T05:12:41.087Z,-1.61
2023-01-22T05:15:23.035Z,-1.71
2023-01-22T05:17:52.410Z,-1.61
2023-01-22T05:20:21.350Z,-1.70
2023-01-22T05:22:50.094Z,-1.64
2023-01-22T05:25:18.691Z,-1.58
2023-01-22T05:27:48.344Z,-1.66
2023-01-22T05:30:17.298Z,-1.67
2023-01-22T05:32:45.625Z,-1.40
2023-01-22T05:35:13.795Z,-1.32
2023-01-22T05:37:41.775Z,-1.45
2023-01-22T05:40:12.669Z,-1.36
2023-01-22T05:42:41.777Z,-1.43
2023-01-22T05:45:13.309Z,-1.55
2023-01-22T05:47:41.885Z,-1.55
2023-01-22T05:50:11.549Z,-1.65
2023-01-22T05:52:39.897Z,-1.61
2023-01-22T05:55:09.057Z,-1.60
2023-01-22T05:57:38.018Z,-1.60
2023-01-22T06:00:09.238Z,-1.57
2023-01-22T06:02:39.376Z,-1.60
2023-01-22T06:05:09.754Z,-1.57
2023-01-22T06:07:38.277Z,-1.64
2023-01-22T06:10:07.524Z,-1.54
2023-01-22T06:12:35.829Z,-1.67
2023-01-22T06:15:04.444Z,-1.62
2023-01-22T06:17:32.855Z,-1.49
2023-01-22T06:20:02.697Z,-1.50
2023-01-22T06:22:31.158Z,-1.46
2023-01-22T06:24:59.243Z,-1.54
2023-01-22T06:27:27.531Z,-1.58
2023-01-22T06:29:55.936Z,-1.46
2023-01-22T06:32:24.438Z,-1.60
2023-01-22T06:34:53.177Z,-1.42
2023-01-22T06:37:26.087Z,-1.38
2023-01-22T06:39:54.693Z,-1.54
2023-01-22T06:42:23.323Z,-1.42
2023-01-22T06:44:53.993Z,-1.44
2023-01-22T06:47:22.184Z,-1.53
2023-01-22T06:49:50.934Z,-1.39
2023-01-22T06:52:20.573Z,-1.48
2023-01-22T06:54:50.600Z,-1.47
2023-01-22T06:57:19.046Z,-1.46
2023-01-22T06:59:47.529Z,-1.44
2023-01-22T07:02:20.027Z,-1.41
2023-01-22T07:04:48.629Z,-1.54
2023-01-22T07:07:17.117Z,-1.39
2023-01-22T07:09:45.513Z,-1.39
2023-01-22T07:12:15.764Z,-1.34
2023-01-22T07:14:44.346Z,-1.35
2023-01-22T07:17:13.284Z,-1.40
2023-01-22T07:19:41.611Z,-1.35
2023-01-22T07:22:09.709Z,-1.36
2023-01-22T07:24:38.945Z,-1.38
2023-01-22T07:27:06.978Z,-1.42
2023-01-22T07:29:36.977Z,-1.43
2023-01-22T07:32:05.722Z,-1.36
2023-01-22T07:34:34.260Z,-1.44
2023-01-22T07:37:03.932Z,-1.32
2023-01-22T07:39:32.101Z,-1.37
2023-01-22T07:42:01.587Z,-1.27
2023-01-22T07:44:30.002Z,-1.27
2023-01-22T07:47:00.393Z,-1.13
2023-01-22T07:49:28.801Z,-1.30
2023-01-22T07:51:57.395Z,-1.21
2023-01-22T07:54:25.527Z,-1.11
2023-01-22T07:56:53.800Z,-1.21
2023-01-22T07:59:22.495Z,-1.22
2023-01-22T08:01:50.524Z,-1.23
2023-01-22T08:04:20.242Z,-1.13
2023-01-22T08:06:50.358Z,-1.10
2023-01-22T08:09:24.657Z,-1.09
2023-01-22T08:11:56.069Z,-1.19
2023-01-22T08:14:24.528Z,-1.14
2023-01-22T08:16:52.548Z,-1.27
2023-01-22T08:19:22.676Z,-1.14
2023-01-22T08:21:50.852Z,-1.00
2023-01-22T08:24:19.081Z,-1.15
2023-01-22T08:26:47.626Z,-1.26
2023-01-22T08:29:16.470Z,-1.24
2023-01-22T08:31:45.080Z,-1.21
2023-01-22T08:34:13.414Z,-1.20
2023-01-22T08:36:43.396Z,-1.22
2023-01-22T08:39:11.892Z,-1.09
2023-01-22T08:41:40.375Z,-0.95
2023-01-22T08:44:09.359Z,-1.02
2023-01-22T08:46:40.511Z,-0.86
2023-01-22T08:49:09.695Z,-0.88
2023-01-22T08:51:38.316Z,-0.84
2023-01-22T08:54:08.747Z,-1.15
2023-01-22T08:56:37.198Z,-1.03
2023-01-22T08:59:06.948Z,-1.05
2023-01-22T09:01:35.747Z,-0.92
2023-01-22T09:04:06.457Z,-1.03
2023-01-22T09:06:37.416Z,-0.83
2023-01-22T09:09:06.459Z,-0.82
2023-01-22T09:11:36.270Z,-0.79
2023-01-22T09:14:07.682Z,-0.70
2023-01-22T09:16:38.156Z,-0.78
2023-01-22T09:19:06.585Z,-0.69
2023-01-22T09:21:37.433Z,-0.82
2023-01-22T09:24:05.966Z,-0.78
2023-01-22T09:26:37.147Z,-0.78
2023-01-22T09:29:06.312Z,-0.69
2023-01-22T09:31:35.050Z,-0.83
2023-01-22T09:34:04.272Z,-0.77
2023-01-22T09:36:33.063Z,-0.77
2023-01-22T09:39:01.843Z,-0.55
2023-01-22T09:41:34.361Z,-0.62
2023-01-22T09:44:08.400Z,-0.67
2023-01-22T09:46:40.917Z,-0.51
2023-01-22T09:49:15.890Z,-0.59
2023-01-22T09:51:46.681Z,-0.34
2023-01-22T09:54:16.301Z,-0.10
2023-01-22T09:56:47.857Z,-0.15
2023-01-22T09:59:21.965Z,-0.21
2023-01-22T10:01:56.837Z,-0.13
2023-01-22T10:04:34.697Z,0.07
2023-01-22T10:07:06.288Z,-0.27
2023-01-22T10:09:35.850Z,-0.22
2023-01-22T10:12:13.598Z,0.13
2023-01-22T10:14:45.084Z,-0.06
2023-01-22T10:17:20.973Z,0.13
2023-01-22T10:19:53.159Z,-0.02
2023-01-22T10:22:24.671Z,-0.07
2023-01-22T10:24:53.382Z,0.04
2023-01-22T10:27:24.731Z,0.30
2023-01-22T10:30:03.955Z,0.23
2023-01-22T10:32:33.873Z,0.09
2023-01-22T10:35:05.251Z,0.22
2023-01-22T10:37:45.069Z,0.19
2023-01-22T10:40:24.167Z,0.30
2023-01-22T10:43:07.340Z,0.28
2023-01-22T10:45:37.179Z,0.32
2023-01-22T10:48:14.784Z,0.16
2023-01-22T10:50:44.657Z,0.13
2023-01-22T10:53:30.556Z,0.32
2023-01-22T10:56:01.584Z,0.41
2023-01-22T10:58:34.438Z,-0.07
2023-01-22T11:01:08.246Z,0.09
2023-01-22T11:03:39.433Z,0.00
2023-01-22T11:06:14.418Z,-0.24
2023-01-22T11:08:47.897Z,-0.31
2023-01-22T11:11:19.268Z,-0.09
2023-01-22T11:14:02.624Z,-0.10
2023-01-22T11:16:38.600Z,0.15
2023-01-22T11:19:11.022Z,0.11
2023-01-22T11:21:44.016Z,-0.12
2023-01-22T11:24:16.046Z,-0.09
2023-01-22T11:27:25.910Z,0.11
2023-01-22T11:30:21.500Z,0.13
2023-01-22T11:33:06.423Z,-0.07
2023-01-22T11:35:42.801Z,0.18
2023-01-22T11:38:19.436Z,-0.01
2023-01-22T11:41:11.149Z,0.10
2023-01-22T11:43:56.408Z,0.32
2023-01-22T11:46:35.687Z,0.29
2023-01-22T11:49:19.995Z,0.06
2023-01-22T11:52:00.207Z,0.03
2023-01-22T11:54:46.615Z,0.14
2023-01-22T11:57:21.877Z,0.13
2023-01-22T12:00:25.278Z,0.38
2023-01-22T12:03:15.737Z,0.34
2023-01-22T12:05:53.779Z,0.45
2023-01-22T12:08:42.483Z,0.31
2023-01-22T12:11:48.329Z,0.33
2023-01-22T12:14:31.903Z,0.52
2023-01-22T12:17:07.403Z,0.53
2023-01-22T12:19:57.614Z,0.48
2023-01-22T12:22:33.630Z,0.34
2023-01-22T12:25:13.695Z,0.39
2023-01-22T12:27:47.431Z,0.51
2023-01-22T12:30:23.876Z,0.20
2023-01-22T12:32:58.709Z,0.35
2023-01-22T12:35:29.938Z,0.36
2023-01-22T12:38:07.619Z,0.44
2023-01-22T12:41:01.516Z,0.31
2023-01-22T12:43:38.882Z,0.12
2023-01-22T12:46:14.730Z,0.35
2023-01-22T12:48:50.528Z,0.35
2023-01-22T12:51:28.159Z,0.26
2023-01-22T12:54:08.823Z,0.39
2023-01-22T12:56:37.127Z,0.47
2023-01-22T12:59:06.165Z,0.56
2023-01-22T13:01:37.616Z,0.32
2023-01-22T13:04:08.120Z,0.18
2023-01-22T13:06:38.866Z,0.25
2023-01-22T13:09:25.944Z,0.17
2023-01-22T13:11:55.668Z,-0.01
2023-01-22T13:14:27.711Z,0.06
2023-01-22T13:16:59.707Z,0.18
2023-01-22T13:19:30.529Z,0.16
2023-01-22T13:22:01.409Z,0.25
2023-01-22T13:24:31.823Z,0.26
2023-01-22T13:27:02.404Z,0.14
2023-01-22T13:29:34.288Z,0.27
2023-01-22T13:32:04.858Z,0.30
2023-01-22T13:34:36.839Z,0.36
2023-01-22T13:37:07.142Z,0.15
2023-01-22T13:39:38.593Z,0.18
2023-01-22T13:42:07.183Z,0.13
2023-01-22T13:44:39.452Z,0.15
2023-01-22T13:47:07.939Z,0.20
2023-01-22T13:49:42.987Z,0.18
2023-01-22T13:52:18.329Z,0.11
2023-01-22T13:54:56.598Z,0.23
2023-01-22T13:57:24.688Z,0.40
2023-01-22T13:59:57.523Z,0.34
2023-01-22T14:02:30.667Z,0.29
2023-01-22T14:04:59.043Z,0.53
2023-01-22T14:07:29.189Z,0.50
2023-01-22T14:10:12.835Z,0.62
2023-01-22T14:12:42.037Z,0.59
2023-01-22T14:15:22.945Z,0.65
2023-01-22T14:17:51.170Z,0.85
2023-01-22T14:20:20.183Z,0.63
2023-01-22T14:22:49.272Z,0.43
2023-01-22T14:25:19.104Z,0.39
2023-01-22T14:27:50.855Z,0.47
2023-01-22T14:30:22.617Z,0.56
2023-01-22T14:32:50.967Z,0.56
2023-01-22T14:35:21.427Z,0.45
2023-01-22T14:37:50.102Z,0.59
2023-01-22T14:40:22.236Z,0.49
2023-01-22T14:42:51.687Z,0.45
2023-01-22T14:45:21.422Z,0.38
2023-01-22T14:47:53.788Z,0.26
2023-01-22T14:50:24.101Z,0.34
2023-01-22T14:52:52.720Z,0.34
2023-01-22T14:55:24.102Z,0.51
2023-01-22T14:57:52.956Z,0.51
2023-01-22T15:00:21.920Z,0.49
2023-01-22T15:02:50.130Z,0.43
2023-01-22T15:05:18.629Z,0.41
2023-01-22T15:07:47.098Z,0.31
2023-01-22T15:10:16.180Z,0.04
2023-01-22T15:12:49.992Z,-0.08
2023-01-22T15:15:23.445Z,0.24
2023-01-22T15:17:54.114Z,0.21
2023-01-22T15:20:23.572Z,0.19
2023-01-22T15:22:52.643Z,0.26
2023-01-22T15:25:21.098Z,0.20
2023-01-22T15:27:51.451Z,0.21
2023-01-22T15:30:21.312Z,0.18
2023-01-22T15:32:49.638Z,0.34
2023-01-22T15:35:17.916Z,0.27
2023-01-22T15:37:47.663Z,0.21
2023-01-22T15:43:04.124Z,0.21
2023-01-22T15:45:33.163Z,0.24
2023-01-22T15:48:03.724Z,0.12
2023-01-22T15:50:32.402Z,0.18
2023-01-22T15:53:00.786Z,0.06
2023-01-22T15:55:28.972Z,0.14
2023-01-22T15:57:57.235Z,0.13
2023-01-22T16:00:28.159Z,0.09
2023-01-22T16:02:56.569Z,0.05
2023-01-22T16:05:24.792Z,0.07
2023-01-22T16:07:52.964Z,-0.06
2023-01-22T16:10:21.611Z,-0.06
2023-01-22T16:12:49.801Z,-0.09
2023-01-22T16:15:19.442Z,-0.30
2023-01-22T16:17:49.587Z,-0.24
2023-01-22T16:20:18.699Z,-0.20
2023-01-22T16:22:47.548Z,-0.30
2023-01-22T16:25:16.379Z,-0.26
2023-01-22T16:27:45.003Z,-0.25
2023-01-22T16:30:14.935Z,-0.29
2023-01-22T16:32:46.230Z,-0.36
2023-01-22T16:35:18.553Z,-0.37
2023-01-22T16:37:46.970Z,-0.42
2023-01-22T16:40:15.623Z,-0.49
2023-01-22T16:43:00.584Z,-0.40
2023-01-22T16:45:29.314Z,-0.47
2023-01-22T16:47:57.941Z,-0.49
2023-01-22T16:50:27.688Z,-0.53
2023-01-22T16:52:56.088Z,-0.54
2023-01-22T16:55:24.838Z,-0.57
2023-01-22T16:57:56.820Z,-0.60
2023-01-22T17:00:25.927Z,-0.51
2023-01-22T17:03:01.576Z,-0.54
2023-01-22T17:05:32.349Z,-0.67
2023-01-22T17:08:00.622Z,-0.66
2023-01-22T17:10:30.755Z,-0.62
2023-01-22T17:13:03.501Z,-0.60
2023-01-22T17:15:32.169Z,-0.64
2023-01-22T17:18:01.350Z,-0.66
2023-01-22T17:20:32.814Z,-0.61
2023-01-22T17:23:05.013Z,-0.76
2023-01-22T17:25:34.947Z,-0.68
2023-01-22T17:28:05.148Z,-0.74
2023-01-22T17:30:37.377Z,-0.77
2023-01-22T17:33:17.316Z,-0.83
2023-01-22T17:35:48.683Z,-1.00
2023-01-22T17:38:20.772Z,-1.06
2023-01-22T17:40:49.935Z,-0.87
2023-01-22T17:43:18.585Z,-0.98
2023-01-22T17:45:49.993Z,-0.87
2023-01-22T17:48:20.094Z,-0.81
2023-01-22T17:50:51.850Z,-0.89
2023-01-22T17:53:21.765Z,-0.96
2023-01-22T17:55:50.513Z,-0.85
2023-01-22T17:58:21.052Z,-0.91
2023-01-22T18:00:49.930Z,-0.93
2023-01-22T18:03:18.986Z,-0.89
2023-01-22T18:05:54.868Z,-0.83
2023-01-22T18:08:24.960Z,-0.85
2023-01-22T18:10:56.300Z,-0.88
2023-01-22T18:13:24.926Z,-0.89
2023-01-22T18:15:53.906Z,-0.78
2023-01-22T18:18:23.164Z,-0.83
2023-01-22T18:20:53.505Z,-0.83
2023-01-22T18:23:22.148Z,-0.90
2023-01-22T18:25:56.400Z,-0.81
2023-01-22T18:28:28.670Z,-1.00
2023-01-22T18:31:06.067Z,-0.72
2023-01-22T18:33:37.488Z,-0.74
2023-01-22T18:36:15.926Z,-0.78
2023-01-22T18:38:46.510Z,-0.86
2023-01-22T18:41:17.566Z,-0.96
2023-01-22T18:43:49.190Z,-1.11
2023-01-22T18:46:22.123Z,-1.18
2023-01-22T18:48:57.047Z,-0.91
2023-01-22T18:51:29.218Z,-0.90
2023-01-22T18:54:00.981Z,-0.99
2023-01-22T18:56:34.694Z,-0.90
2023-01-22T18:59:06.000Z,-0.97
2023-01-22T19:01:37.203Z,-0.97
2023-01-22T19:04:10.687Z,-1.06
2023-01-22T19:06:41.469Z,-1.01
2023-01-22T19:09:16.014Z,-0.95
2023-01-22T19:11:49.009Z,-1.03
2023-01-22T19:14:21.550Z,-0.95
2023-01-22T19:16:53.893Z,-1.06
2023-01-22T19:19:24.460Z,-0.99
2023-01-22T19:21:58.086Z,-1.05
2023-01-22T19:24:28.941Z,-0.91
2023-01-22T19:27:06.149Z,-1.10
2023-01-22T19:29:34.778Z,-0.95
2023-01-22T19:32:05.888Z,-1.02
2023-01-22T19:34:34.985Z,-0.98
2023-01-22T19:37:09.047Z,-0.96
2023-01-22T19:39:40.281Z,-1.10
2023-01-22T19:42:10.109Z,-0.91
2023-01-22T19:44:40.034Z,-1.10
2023-01-22T19:47:09.217Z,-0.93
2023-01-22T19:49:38.226Z,-0.94
2023-01-22T19:52:10.954Z,-0.99
2023-01-22T19:54:46.203Z,-1.06
2023-01-22T19:57:15.165Z,-1.10
2023-01-22T19:59:44.214Z,-1.18
2023-01-22T20:02:18.490Z,-0.95
2023-01-22T20:04:50.895Z,-1.04
2023-01-22T20:07:22.917Z,-0.96
2023-01-22T20:09:53.872Z,-0.90
2023-01-22T20:12:26.174Z,-0.92
2023-01-22T20:14:55.683Z,-0.98
2023-01-22T20:17:24.473Z,-1.04
2023-01-22T20:19:53.554Z,-1.04
2023-01-22T20:22:24.624Z,-1.04
2023-01-22T20:24:54.751Z,-0.96
2023-01-22T20:27:25.004Z,-0.88
2023-01-22T20:29:54.517Z,-0.97
2023-01-22T20:32:23.477Z,-0.96
2023-01-22T20:34:53.836Z,-0.96
2023-01-22T20:37:24.440Z,-0.85
2023-01-22T20:39:53.784Z,-1.21
2023-01-22T20:42:22.488Z,-1.06
2023-01-22T20:44:51.568Z,-1.09
2023-01-22T20:47:20.771Z,-0.95
2023-01-22T20:49:50.176Z,-1.06
2023-01-22T20:52:21.799Z,-0.96
2023-01-22T20:55:01.398Z,-1.17
2023-01-22T20:57:34.050Z,-1.01
2023-01-22T21:00:04.175Z,-1.20
2023-01-22T21:02:32.883Z,-1.11
2023-01-22T21:05:01.391Z,-1.13
2023-01-22T21:07:31.687Z,-1.10
2023-01-22T21:10:04.943Z,-1.08
2023-01-22T21:12:35.597Z,-0.99
2023-01-22T21:15:10.481Z,-1.08
2023-01-22T21:17:40.612Z,-0.97
2023-01-22T21:20:10.605Z,-0.98
2023-01-22T21:22:39.172Z,-0.92
2023-01-22T21:25:09.810Z,-1.08
2023-01-22T21:27:39.512Z,-1.10
2023-01-22T21:30:09.326Z,-1.12
2023-01-22T21:32:38.442Z,-0.98
2023-01-22T21:35:09.449Z,-0.97
2023-01-22T21:37:38.627Z,-0.96
2023-01-22T21:40:12.456Z,-1.08
2023-01-22T21:42:59.810Z,-0.99
2023-01-22T21:45:46.821Z,-0.95
2023-01-22T21:48:14.977Z,-0.97
2023-01-22T21:50:44.199Z,-0.96
2023-01-22T21:53:13.800Z,-1.11
2023-01-22T21:55:53.386Z,-0.95
2023-01-22T21:58:22.389Z,-1.10
2023-01-22T22:00:54.908Z,-0.96
2023-01-22T22:03:23.710Z,-0.96
2023-01-22T22:05:57.912Z,-1.03
2023-01-22T22:08:26.507Z,-1.18
2023-01-22T22:10:58.063Z,-0.92
2023-01-22T22:13:26.616Z,-0.90
2023-01-22T22:15:56.499Z,-1.06
2023-01-22T22:18:25.438Z,-0.88
2023-01-22T22:20:54.059Z,-0.92
2023-01-22T22:23:24.009Z,-0.86
2023-01-22T22:25:52.890Z,-0.94
2023-01-22T22:28:23.352Z,-0.81
2023-01-22T22:30:53.194Z,-0.89
2023-01-22T22:33:22.038Z,-0.98
2023-01-22T22:35:51.302Z,-1.00
2023-01-22T22:38:19.814Z,-1.21
2023-01-22T22:40:59.271Z,-1.00
2023-01-22T22:43:33.554Z,-1.08
2023-01-22T22:46:10.276Z,-0.90
2023-01-22T22:48:38.720Z,-0.98
2023-01-22T22:51:12.790Z,-0.93
2023-01-22T22:53:42.428Z,-0.95
2023-01-22T22:56:12.518Z,-1.06
2023-01-22T22:58:44.834Z,-0.95
2023-01-22T23:01:15.778Z,-0.94
2023-01-22T23:03:44.603Z,-0.93
2023-01-22T23:06:18.283Z,-0.85
2023-01-22T23:08:52.350Z,-0.88
2023-01-22T23:11:27.099Z,-0.96
2023-01-22T23:14:01.434Z,-0.75
2023-01-22T23:16:34.369Z,-0.93
2023-01-22T23:19:05.662Z,-0.93
2023-01-22T23:21:37.359Z,-0.76
2023-01-22T23:24:07.100Z,-0.91
2023-01-22T23:26:35.620Z,-0.84
2023-01-22T23:29:11.728Z,-0.86
2023-01-22T23:31:41.671Z,-0.87
2023-01-22T23:34:22.644Z,-0.80
2023-01-22T23:36:54.239Z,-0.78
2023-01-22T23:39:24.851Z,-0.80
2023-01-22T23:41:53.358Z,-0.85
2023-01-22T23:44:25.098Z,-0.82
2023-01-22T23:46:55.940Z,-0.85
2023-01-22T23:49:24.162Z,-0.91
2023-01-22T23:51:53.166Z,-0.82
2023-01-22T23:54:21.675Z,-0.98
2023-01-22T23:56:51.500Z,-0.81
2023-01-22T23:59:19.945Z,-0.90
